Time;durP1;ratioP1;P1;durP2;ratioP2;P2;SDS_P1;SDS_P2;PMS_P1;PMS_P2;Temp;Humidity;BMP_temperature;BMP_pressure;BME280_temperature;BME280_humidity;BME280_pressure;Samples;Min_cycle;Max_cycle;Signal;HPM_P1;HPM_P2
2022/01/21 00:01:22;;;;;;;18.17;3.05;;;1.80;99.90;;;;;;5055988;28;20078;-73
2022/01/21 00:03:48;;;;;;;11.05;2.30;;;1.80;99.90;;;;;;5053703;28;20048;-73
2022/01/21 00:06:14;;;;;;;15.57;3.17;;;1.90;99.90;;;;;;5055661;28;20407;-73
2022/01/21 00:08:42;;;;;;;14.02;2.60;;;1.90;99.90;;;;;;5039447;28;20050;-73
2022/01/21 00:11:09;;;;;;;11.75;2.20;;;2.00;99.90;;;;;;5055625;28;20079;-73
2022/01/21 00:13:36;;;;;;;20.13;3.17;;;2.00;99.90;;;;;;5038990;28;20094;-73
2022/01/21 00:16:03;;;;;;;11.00;2.08;;;2.10;99.90;;;;;;5055785;28;20161;-73
2022/01/21 00:18:29;;;;;;;13.05;2.58;;;2.10;99.90;;;;;;5055588;28;20044;-73
2022/01/21 00:31:52;;;;;;;12.35;2.13;;;2.10;99.90;;;;;;5075183;28;20044;-73
2022/01/21 00:34:19;;;;;;;11.07;2.33;;;2.20;99.90;;;;;;5056318;28;20035;-73
2022/01/21 00:36:44;;;;;;;13.68;2.67;;;2.20;99.90;;;;;;5058313;28;20507;-73
2022/01/21 00:39:12;;;;;;;12.52;3.03;;;2.30;99.90;;;;;;5058455;28;20040;-73
2022/01/21 00:41:48;;;;;;;16.25;2.78;;;2.30;99.90;;;;;;5074975;28;20101;-73
2022/01/21 00:44:13;;;;;;;13.55;2.10;;;2.30;99.90;;;;;;5075501;28;20480;-73
2022/01/21 00:46:39;;;;;;;10.48;2.17;;;2.30;99.90;;;;;;5075006;28;20123;-73
2022/01/21 00:49:05;;;;;;;17.45;2.95;;;2.30;99.90;;;;;;5074934;28;20040;-73
2022/01/21 00:51:31;;;;;;;13.75;2.28;;;2.30;99.90;;;;;;5072799;28;20058;-73
2022/01/21 00:53:57;;;;;;;12.45;2.83;;;2.40;99.90;;;;;;5074283;28;20040;-73
2022/01/21 00:56:22;;;;;;;9.50;2.83;;;2.40;99.90;;;;;;5058179;28;20079;-73
2022/01/21 00:58:48;;;;;;;13.65;2.28;;;2.30;99.90;;;;;;5058147;28;20044;-73
2022/01/21 01:01:14;;;;;;;13.60;2.83;;;2.30;99.90;;;;;;5056520;28;20411;-73
2022/01/21 01:03:40;;;;;;;9.07;2.70;;;2.20;99.90;;;;;;5056342;28;20044;-73
2022/01/21 01:06:06;;;;;;;16.65;2.55;;;2.20;99.90;;;;;;5074953;28;20097;-73
2022/01/21 01:08:32;;;;;;;11.63;2.83;;;2.10;99.90;;;;;;5074884;28;20044;-73
2022/01/21 01:11:18;;;;;;;10.50;2.40;;;2.10;99.90;;;;;;5058035;28;20040;-72
2022/01/21 01:21:57;;;;;;;12.15;2.80;;;2.30;99.90;;;;;;5071244;28;20106;-73
2022/01/21 01:29:52;;;;;;;11.90;1.90;;;2.20;99.90;;;;;;5071062;28;20077;-74
2022/01/21 01:32:20;;;;;;;14.68;2.35;;;2.30;99.90;;;;;;5071166;28;20119;-73
2022/01/21 01:34:46;;;;;;;6.57;1.55;;;2.30;99.90;;;;;;5069232;28;20044;-73
2022/01/21 01:37:24;;;;;;;8.80;1.92;;;2.30;99.90;;;;;;5054287;28;20067;-73
2022/01/21 01:40:00;;;;;;;11.50;1.67;;;2.40;99.90;;;;;;5054844;28;20037;-73
2022/01/21 01:42:59;;;;;;;8.02;1.65;;;2.40;99.90;;;;;;5071474;28;20112;-73
2022/01/21 01:50:43;;;;;;;14.18;2.40;;;2.40;99.90;;;;;;5030540;28;20040;-73
2022/01/21 01:53:09;;;;;;;12.73;2.58;;;2.40;99.90;;;;;;5071106;28;20378;-73
2022/01/21 01:55:37;;;;;;;11.45;2.45;;;2.40;99.90;;;;;;5071297;28;20109;-73
2022/01/21 01:58:06;;;;;;;8.82;2.25;;;2.40;99.90;;;;;;5071107;28;20037;-73
2022/01/21 02:00:32;;;;;;;10.60;2.42;;;2.40;99.90;;;;;;5054681;28;20548;-73
2022/01/21 02:03:14;;;;;;;15.93;3.83;;;2.30;99.90;;;;;;5068721;28;20047;-73
2022/01/21 02:05:41;;;;;;;5.97;2.20;;;2.20;99.90;;;;;;5054150;28;20037;-73
2022/01/21 02:08:07;;;;;;;12.55;2.28;;;2.20;99.90;;;;;;5071020;28;20068;-73
2022/01/21 02:10:34;;;;;;;5.93;2.90;;;2.20;99.90;;;;;;5073802;28;20040;-73
2022/01/21 02:13:06;;;;;;;9.30;2.45;;;2.20;99.90;;;;;;5074444;28;20123;-73
2022/01/21 02:15:41;;;;;;;11.32;2.60;;;2.20;99.90;;;;;;5058060;28;20384;-73
2022/01/21 02:23:35;;;;;;;10.57;2.08;;;2.40;99.90;;;;;;5074418;28;20119;-73
2022/01/21 02:26:02;;;;;;;11.05;2.40;;;2.40;99.90;;;;;;5057482;28;20497;-73
2022/01/21 02:28:28;;;;;;;9.80;2.05;;;2.40;99.90;;;;;;5074399;28;20067;-73
2022/01/21 02:30:59;;;;;;;10.98;2.13;;;2.40;99.90;;;;;;5057846;28;20105;-74
2022/01/21 02:33:26;;;;;;;9.25;2.00;;;2.40;99.90;;;;;;5071878;28;20045;-73
2022/01/21 02:35:52;;;;;;;6.32;1.85;;;2.40;99.90;;;;;;5074145;28;20123;-73
2022/01/21 02:38:19;;;;;;;8.27;2.13;;;2.30;99.90;;;;;;5057396;28;20127;-73
2022/01/21 02:40:45;;;;;;;11.70;1.85;;;2.30;99.90;;;;;;5074086;28;20511;-73
2022/01/21 02:43:12;;;;;;;10.77;2.17;;;2.20;99.90;;;;;;5057508;28;20121;-73
2022/01/21 02:45:40;;;;;;;6.18;1.55;;;2.00;99.90;;;;;;5057214;28;20041;-73
2022/01/21 02:48:09;;;;;;;12.63;1.55;;;2.00;99.90;;;;;;5073818;28;20037;-72
2022/01/21 02:50:34;;;;;;;10.85;1.65;;;1.90;99.90;;;;;;5073890;28;20043;-73
2022/01/21 02:53:11;;;;;;;13.02;2.17;;;1.80;99.90;;;;;;5073964;28;20040;-72
2022/01/21 02:55:37;;;;;;;14.52;2.60;;;1.70;99.90;;;;;;5074121;28;20044;-73
2022/01/21 02:58:03;;;;;;;11.48;2.17;;;1.70;99.90;;;;;;5073629;28;20485;-73
2022/01/21 03:00:29;;;;;;;8.30;1.83;;;1.80;99.90;;;;;;5073670;28;20040;-73
2022/01/21 03:02:55;;;;;;;14.88;1.77;;;1.80;99.90;;;;;;5054732;28;20090;-73
2022/01/21 03:05:21;;;;;;;10.32;1.38;;;1.80;99.90;;;;;;5073521;28;20048;-73
2022/01/21 03:07:47;;;;;;;16.55;2.50;;;1.80;99.90;;;;;;5073345;28;20119;-72
2022/01/21 03:10:15;;;;;;;8.50;2.65;;;1.90;99.90;;;;;;5073509;28;20089;-72
2022/01/21 03:12:41;;;;;;;12.57;1.77;;;1.90;99.90;;;;;;5056640;28;20048;-72
2022/01/21 03:15:08;;;;;;;10.15;2.53;;;2.00;99.90;;;;;;5057092;28;20460;-73
2022/01/21 03:17:34;;;;;;;17.55;2.33;;;2.10;99.90;;;;;;5073304;28;20086;-72
2022/01/21 03:20:01;;;;;;;15.30;2.17;;;2.10;99.90;;;;;;5073245;28;20438;-72
2022/01/21 03:22:27;;;;;;;11.65;2.13;;;2.10;99.90;;;;;;5058969;28;20048;-72
2022/01/21 03:24:53;;;;;;;7.30;1.70;;;2.10;99.90;;;;;;5076508;28;20471;-72
2022/01/21 03:27:19;;;;;;;13.43;2.40;;;2.10;99.90;;;;;;5076542;28;20040;-72
2022/01/21 03:29:45;;;;;;;10.85;1.60;;;2.00;99.90;;;;;;5048964;28;20032;-72
2022/01/21 03:32:11;;;;;;;13.18;1.63;;;1.90;99.90;;;;;;5039684;28;20048;-72
2022/01/21 03:34:37;;;;;;;11.18;1.55;;;1.70;99.90;;;;;;5054138;28;20055;-72
2022/01/21 03:37:03;;;;;;;10.32;1.88;;;1.70;99.90;;;;;;5039478;28;20045;-72
2022/01/21 03:39:29;;;;;;;6.90;1.45;;;1.70;99.90;;;;;;5039796;28;20040;-72
2022/01/21 03:41:55;;;;;;;6.22;1.27;;;1.60;99.90;;;;;;5039507;28;20511;-72
2022/01/21 03:44:21;;;;;;;8.25;1.40;;;1.60;99.90;;;;;;5056063;28;20052;-72
2022/01/21 03:46:46;;;;;;;7.35;1.40;;;1.50;99.90;;;;;;5056073;28;20128;-72
2022/01/21 03:49:12;;;;;;;5.70;1.50;;;1.40;99.90;;;;;;5039367;28;20036;-72
2022/01/21 03:51:38;;;;;;;9.10;1.42;;;1.30;99.90;;;;;;5055911;28;20223;-72
2022/01/21 03:54:05;;;;;;;8.43;1.48;;;1.30;99.90;;;;;;5055825;28;20037;-72
2022/01/21 03:56:30;;;;;;;13.45;1.55;;;1.30;99.90;;;;;;5056307;28;20102;-71
2022/01/21 03:58:56;;;;;;;9.60;1.40;;;1.30;99.90;;;;;;5055998;28;20103;-71
2022/01/21 04:01:24;;;;;;;8.35;1.45;;;1.40;99.90;;;;;;5055745;28;20186;-71
2022/01/21 04:03:51;;;;;;;8.32;1.40;;;1.50;99.90;;;;;;5037015;28;20036;-71
2022/01/21 04:06:17;;;;;;;10.45;1.60;;;1.50;99.90;;;;;;5039211;28;20076;-71
2022/01/21 04:08:43;;;;;;;7.85;1.30;;;1.50;99.90;;;;;;5039008;28;20068;-72
2022/01/21 04:11:08;;;;;;;10.88;1.98;;;1.50;99.90;;;;;;5055869;28;20048;-72
2022/01/21 04:13:35;;;;;;;13.15;2.85;;;1.60;99.90;;;;;;5055544;28;20530;-71
2022/01/21 04:16:01;;;;;;;16.48;1.95;;;1.70;99.90;;;;;;5039093;28;20101;-71
2022/01/21 04:18:27;;;;;;;8.63;1.40;;;1.80;99.90;;;;;;5055821;28;20048;-72
2022/01/21 04:20:53;;;;;;;7.65;1.30;;;1.90;99.90;;;;;;5059198;28;20387;-72
2022/01/21 04:23:21;;;;;;;9.20;1.35;;;1.90;99.90;;;;;;5075371;28;20131;-72
2022/01/21 04:25:47;;;;;;;10.10;1.45;;;2.00;99.90;;;;;;5075264;28;20488;-72
2022/01/21 04:28:14;;;;;;;10.60;1.38;;;2.10;99.90;;;;;;5075619;28;20040;-72
2022/01/21 04:30:40;;;;;;;13.98;1.48;;;2.10;99.90;;;;;;5075142;28;20042;-72
2022/01/21 04:33:06;;;;;;;14.75;1.65;;;2.10;99.90;;;;;;5072710;28;20860;-71
2022/01/21 04:35:33;;;;;;;6.13;1.00;;;2.10;99.90;;;;;;5075131;28;20050;-72
2022/01/21 04:38:03;;;;;;;8.48;1.88;;;2.20;99.90;;;;;;5075111;28;20075;-71
2022/01/21 04:40:34;;;;;;;7.50;2.25;;;2.20;99.90;;;;;;5058501;28;20097;-72
2022/01/21 04:48:29;;;;;;;8.77;1.40;;;2.10;99.90;;;;;;5075281;28;20044;-72
2022/01/21 04:51:11;;;;;;;9.38;2.20;;;2.10;99.90;;;;;;5075301;28;20372;-71
2022/01/21 04:53:38;;;;;;;13.00;2.58;;;2.10;99.90;;;;;;5075110;28;20047;-72
2022/01/21 04:56:04;;;;;;;6.88;1.13;;;2.10;99.90;;;;;;5058495;28;20044;-72
2022/01/21 04:58:30;;;;;;;7.05;1.50;;;2.00;99.90;;;;;;5075093;28;20137;-71
2022/01/21 05:00:56;;;;;;;7.53;1.80;;;2.00;99.90;;;;;;5058183;28;20071;-71
2022/01/21 05:03:22;;;;;;;16.60;1.95;;;2.00;99.90;;;;;;5072881;28;20048;-71
2022/01/21 05:05:48;;;;;;;11.57;2.45;;;1.90;99.90;;;;;;5073925;28;20051;-72
2022/01/21 05:08:26;;;;;;;7.32;1.45;;;1.90;99.90;;;;;;5073938;28;20083;-71
2022/01/21 05:10:52;;;;;;;13.35;2.33;;;1.90;99.90;;;;;;5057034;28;20133;-72
2022/01/21 05:13:23;;;;;;;10.77;1.50;;;1.90;99.90;;;;;;5074088;28;20126;-72
2022/01/21 05:16:02;;;;;;;;;;;2.00;99.90;;;;;;5074453;28;20463;-71
2022/01/21 05:18:28;;;;;;;8.63;1.35;;;2.00;99.90;;;;;;5057433;28;19915;-71
2022/01/21 05:20:54;;;;;;;4.88;1.33;;;1.90;99.90;;;;;;5073517;28;20063;-72
2022/01/21 05:23:20;;;;;;;8.90;2.20;;;1.80;99.90;;;;;;5057295;28;20404;-72
2022/01/21 05:25:46;;;;;;;8.35;1.38;;;1.70;99.90;;;;;;5073811;28;20036;-71
2022/01/21 05:28:13;;;;;;;9.35;2.50;;;1.60;99.90;;;;;;5073990;28;20546;-71
2022/01/21 05:30:39;;;;;;;11.40;1.75;;;1.50;99.90;;;;;;5073521;28;20097;-72
2022/01/21 05:33:04;;;;;;;28.67;3.38;;;1.60;99.90;;;;;;5071271;28;20298;-72
2022/01/21 05:35:30;;;;;;;13.98;4.00;;;1.60;99.90;;;;;;5073568;28;20044;-72
2022/01/21 05:37:56;;;;;;;8.93;1.38;;;1.70;99.90;;;;;;5056778;28;20036;-71
2022/01/21 05:40:24;;;;;;;10.32;2.25;;;1.80;99.90;;;;;;5073459;28;20046;-71
2022/01/21 05:42:49;;;;;;;8.77;1.27;;;1.80;99.90;;;;;;5057285;28;20090;-71
2022/01/21 05:47:59;;;;;;;11.38;1.63;;;1.80;99.90;;;;;;5077462;28;20105;-71
2022/01/21 05:50:25;;;;;;;7.88;1.40;;;1.90;99.90;;;;;;5077464;28;20040;-71
2022/01/21 05:52:51;;;;;;;7.10;1.63;;;1.90;99.90;;;;;;5060735;28;20473;-72
2022/01/21 05:55:18;;;;;;;10.32;1.70;;;1.80;99.90;;;;;;5077269;28;20051;-71
2022/01/21 05:57:44;;;;;;;8.23;1.38;;;1.80;99.90;;;;;;5060570;28;20047;-72
2022/01/21 06:00:12;;;;;;;10.40;1.70;;;1.90;99.90;;;;;;5060573;28;20044;-72
2022/01/21 06:02:38;;;;;;;8.95;1.63;;;2.00;99.90;;;;;;5060737;28;20086;-71
2022/01/21 06:05:05;;;;;;;8.68;2.17;;;2.10;99.90;;;;;;5074679;28;20071;-71
2022/01/21 06:07:32;;;;;;;9.20;1.67;;;2.20;99.90;;;;;;5076955;28;20040;-72
2022/01/21 06:09:58;;;;;;;11.40;1.70;;;2.30;99.90;;;;;;5077159;28;20068;-72
2022/01/21 06:12:24;;;;;;;8.52;1.98;;;2.40;99.90;;;;;;5077600;28;20075;-71
2022/01/21 06:14:51;;;;;;;13.70;3.13;;;2.50;99.90;;;;;;5077681;28;20092;-71
2022/01/21 06:17:17;;;;;;;9.02;1.58;;;2.50;99.90;;;;;;5077772;28;20043;-72
2022/01/21 06:19:44;;;;;;;11.23;1.90;;;2.50;99.90;;;;;;5077738;28;20046;-72
2022/01/21 06:22:10;;;;;;;13.52;1.75;;;2.40;99.90;;;;;;5077620;28;20063;-71
2022/01/21 06:24:36;;;;;;;10.88;1.42;;;2.40;99.90;;;;;;5061233;28;20212;-71
2022/01/21 06:27:04;;;;;;;7.95;1.55;;;2.40;99.90;;;;;;5077467;28;20123;-71
2022/01/21 06:29:30;;;;;;;12.20;1.52;;;2.40;99.90;;;;;;5068660;28;20045;-72
2022/01/21 06:31:56;;;;;;;7.60;1.77;;;2.30;99.90;;;;;;5057405;28;20033;-71
2022/01/21 06:34:22;;;;;;;9.45;2.25;;;2.20;99.90;;;;;;5038716;28;20076;-72
2022/01/21 06:36:48;;;;;;;5.82;1.38;;;2.30;99.90;;;;;;5040706;28;20080;-71
2022/01/21 06:39:14;;;;;;;7.85;1.88;;;2.30;99.90;;;;;;5057649;28;20044;-72
2022/01/21 06:41:42;;;;;;;5.78;1.50;;;2.20;99.90;;;;;;5057666;28;20440;-72
2022/01/21 06:44:08;;;;;;;9.95;2.17;;;2.10;99.90;;;;;;5041134;28;20048;-71
2022/01/21 06:46:34;;;;;;;5.32;1.40;;;2.00;99.90;;;;;;5057354;28;20050;-72
2022/01/21 06:49:00;;;;;;;8.15;1.67;;;1.90;99.90;;;;;;5057219;28;20408;-72
2022/01/21 06:51:26;;;;;;;7.13;1.70;;;1.80;99.90;;;;;;5040730;28;20132;-72
2022/01/21 06:53:51;;;;;;;6.97;1.85;;;1.80;99.90;;;;;;5057171;28;20049;-72
2022/01/21 06:56:17;;;;;;;17.27;1.92;;;1.80;99.90;;;;;;5056951;28;20041;-72
2022/01/21 06:58:43;;;;;;;10.75;1.83;;;1.80;99.90;;;;;;5040236;28;20052;-71
2022/01/21 07:01:09;;;;;;;13.88;2.80;;;1.90;99.90;;;;;;5056174;28;20040;-72
2022/01/21 07:03:35;;;;;;;9.07;2.28;;;1.90;99.90;;;;;;5036877;28;20102;-72
2022/01/21 07:06:00;;;;;;;11.57;3.30;;;1.90;99.90;;;;;;5039221;28;20040;-71
2022/01/21 07:08:27;;;;;;;9.52;1.95;;;1.90;99.90;;;;;;5056157;28;20123;-72
2022/01/21 07:10:53;;;;;;;10.65;1.60;;;1.90;99.90;;;;;;5039643;28;20488;-71
2022/01/21 07:13:19;;;;;;;6.28;1.65;;;1.90;99.90;;;;;;5056195;28;20032;-72
2022/01/21 07:15:45;;;;;;;10.93;1.85;;;1.90;99.90;;;;;;5055730;28;20404;-71
2022/01/21 07:18:11;;;;;;;14.68;3.25;;;2.00;99.90;;;;;;5055683;28;20086;-72
2022/01/21 07:20:37;;;;;;;10.27;1.95;;;2.00;99.90;;;;;;5040532;28;20037;-72
2022/01/21 07:23:03;;;;;;;10.98;2.30;;;2.00;99.90;;;;;;5059281;28;20040;-72
2022/01/21 07:25:29;;;;;;;10.50;1.88;;;1.90;99.90;;;;;;5058938;28;20177;-72
2022/01/21 07:27:55;;;;;;;8.95;1.55;;;1.90;99.90;;;;;;5075498;28;20122;-72
2022/01/21 07:30:21;;;;;;;7.85;1.73;;;1.80;99.90;;;;;;5043304;28;20048;-72
2022/01/21 07:32:47;;;;;;;10.75;1.70;;;1.80;99.90;;;;;;5054678;28;20511;-72
2022/01/21 07:35:14;;;;;;;5.68;1.80;;;1.70;99.90;;;;;;5053773;28;20040;-72
2022/01/21 07:37:40;;;;;;;11.18;1.52;;;1.60;99.90;;;;;;5055291;28;20049;-72
2022/01/21 07:40:07;;;;;;;8.77;1.73;;;1.60;99.90;;;;;;5055545;28;20047;-72
2022/01/21 07:42:33;;;;;;;10.40;1.38;;;1.50;99.90;;;;;;5038589;28;20041;-72
2022/01/21 07:45:01;;;;;;;10.23;1.80;;;1.50;99.90;;;;;;5055213;28;20047;-71
2022/01/21 07:47:26;;;;;;;8.50;2.17;;;1.40;99.90;;;;;;5055007;28;20047;-71
2022/01/21 07:49:52;;;;;;;12.43;1.60;;;1.40;99.90;;;;;;5055394;28;20036;-71
2022/01/21 07:52:18;;;;;;;10.85;1.80;;;1.30;99.90;;;;;;5055979;28;20036;-71
2022/01/21 07:54:44;;;;;;;6.47;1.45;;;1.30;99.90;;;;;;5065316;28;20059;-71
2022/01/21 07:57:11;;;;;;;7.40;1.67;;;1.20;99.90;;;;;;5055658;28;20122;-71
2022/01/21 07:59:37;;;;;;;9.00;1.65;;;1.20;99.90;;;;;;5056064;28;20047;-71
2022/01/21 08:02:04;;;;;;;12.68;1.73;;;1.10;99.90;;;;;;5039083;28;20127;-72
2022/01/21 08:04:30;;;;;;;11.82;2.88;;;1.00;99.90;;;;;;5037085;28;20059;-72
2022/01/21 08:06:56;;;;;;;8.40;2.13;;;1.00;99.90;;;;;;5054958;28;20469;-72
2022/01/21 08:09:24;;;;;;;11.80;2.00;;;1.00;99.90;;;;;;5039164;28;20426;-72
2022/01/21 08:11:51;;;;;;;9.65;1.80;;;1.00;99.90;;;;;;5055439;28;20665;-72
2022/01/21 08:14:17;;;;;;;9.70;2.17;;;1.00;99.90;;;;;;5039200;28;20093;-72
2022/01/21 08:16:43;;;;;;;7.55;1.98;;;1.00;99.90;;;;;;5055603;28;20037;-72
2022/01/21 08:19:08;;;;;;;13.35;2.15;;;1.10;99.90;;;;;;5055610;28;20047;-72
2022/01/21 08:21:34;;;;;;;12.32;2.58;;;1.20;99.90;;;;;;5044807;28;20497;-72
2022/01/21 08:24:00;;;;;;;14.40;2.17;;;1.40;99.90;;;;;;5072017;28;20052;-72
2022/01/21 08:26:28;;;;;;;16.90;5.03;;;1.70;99.90;;;;;;5072133;28;20044;-72
2022/01/21 08:28:56;;;;;;;21.35;6.47;;;2.00;99.90;;;;;;5055105;28;20035;-72
2022/01/21 08:31:23;;;;;;;22.45;8.05;;;2.30;99.90;;;;;;5055195;28;20044;-72
2022/01/21 08:33:49;;;;;;;17.75;3.55;;;2.60;99.90;;;;;;5069945;28;20037;-72
2022/01/21 08:36:17;;;;;;;21.33;8.65;;;2.90;99.90;;;;;;5071823;28;20044;-72
2022/01/21 08:38:43;;;;;;;14.25;2.80;;;3.00;99.90;;;;;;5071691;28;20040;-72
2022/01/21 08:41:08;;;;;;;14.48;3.10;;;3.10;99.90;;;;;;5055060;28;20094;-72
2022/01/21 08:43:34;;;;;;;13.65;2.67;;;3.30;99.90;;;;;;5054825;28;20052;-72
2022/01/21 08:46:00;;;;;;;13.50;2.47;;;3.40;99.90;;;;;;5054989;28;20140;-72
2022/01/21 08:48:26;;;;;;;11.85;2.22;;;3.40;99.90;;;;;;5071427;28;20040;-73
2022/01/21 08:50:52;;;;;;;16.17;2.92;;;3.40;99.90;;;;;;5071725;28;20040;-73
2022/01/21 08:56:04;;;;;;;8.68;2.15;;;3.40;99.90;;;;;;5071548;28;20051;-73
2022/01/21 08:58:30;;;;;;;15.35;3.63;;;3.40;99.90;;;;;;5054844;28;20487;-73
2022/01/21 09:00:56;;;;;;;17.35;3.78;;;3.50;99.90;;;;;;5071489;28;20075;-73
2022/01/21 09:03:24;;;;;;;13.10;3.25;;;3.60;99.90;;;;;;5069319;28;20040;-73
2022/01/21 09:05:50;;;;;;;18.17;3.05;;;3.60;99.90;;;;;;5071461;28;20047;-74
2022/01/21 09:08:24;;;;;;;13.60;2.83;;;3.70;99.90;;;;;;5071491;28;20476;-73
2022/01/21 09:10:55;;;;;;;9.55;2.47;;;3.80;99.90;;;;;;5054948;28;20446;-73
2022/01/21 09:13:23;;;;;;;18.77;2.90;;;3.90;99.90;;;;;;5071676;28;20047;-73
2022/01/21 09:15:49;;;;;;;13.55;2.13;;;4.00;99.90;;;;;;5054950;28;20040;-73
2022/01/21 09:18:19;;;;;;;9.32;2.38;;;4.20;99.90;;;;;;5072356;28;20517;-73
2022/01/21 09:20:45;;;;;;;15.93;2.30;;;4.70;99.90;;;;;;5078328;28;20045;-73
2022/01/21 09:23:11;;;;;;;8.68;1.77;;;5.10;99.90;;;;;;5062344;28;20059;-73
2022/01/21 09:25:37;;;;;;;11.50;2.05;;;5.10;99.90;;;;;;5078732;28;20040;-73
2022/01/21 09:28:03;;;;;;;17.33;2.58;;;5.10;99.90;;;;;;5078615;28;20055;-72
2022/01/21 09:30:30;;;;;;;14.35;2.50;;;5.00;99.90;;;;;;5078644;28;20036;-73
2022/01/21 09:32:56;;;;;;;15.10;2.67;;;4.90;99.90;;;;;;5060421;28;20039;-73
2022/01/21 09:35:23;;;;;;;16.10;2.92;;;4.90;99.90;;;;;;5078599;28;20032;-74
2022/01/21 09:37:48;;;;;;;12.18;2.90;;;4.80;99.90;;;;;;5078500;28;20043;-73
2022/01/21 09:40:14;;;;;;;16.05;3.00;;;4.80;99.90;;;;;;5078329;28;20036;-73
2022/01/21 09:42:40;;;;;;;14.40;3.05;;;4.80;99.90;;;;;;5061831;28;20043;-73
2022/01/21 09:45:11;;;;;;;15.23;2.72;;;4.90;99.90;;;;;;5061786;28;20068;-74
2022/01/21 09:47:47;;;;;;;17.23;2.65;;;5.10;99.90;;;;;;5078389;28;20044;-73
2022/01/21 09:50:16;;;;;;;17.20;3.50;;;5.80;99.90;;;;;;5061837;28;20071;-73
2022/01/21 09:52:46;;;;;;;13.02;2.58;;;6.90;99.90;;;;;;5078417;28;20042;-74
2022/01/21 09:55:13;;;;;;;20.40;2.90;;;7.30;99.90;;;;;;5061629;28;20504;-73
2022/01/21 09:57:41;;;;;;;20.08;3.22;;;7.20;99.90;;;;;;5078452;28;20046;-74
2022/01/21 10:00:08;;;;;;;17.65;2.97;;;7.00;99.90;;;;;;5078115;28;20101;-74
2022/01/21 10:02:36;;;;;;;16.10;4.13;;;6.70;99.90;;;;;;5078303;28;20040;-73
2022/01/21 10:05:03;;;;;;;15.38;2.47;;;6.60;99.90;;;;;;5075813;28;20112;-73
2022/01/21 10:07:30;;;;;;;13.45;3.92;;;6.50;99.90;;;;;;5061200;28;20169;-73
2022/01/21 10:10:00;;;;;;;17.38;3.28;;;6.90;99.90;;;;;;5077803;28;20566;-74
2022/01/21 10:12:26;;;;;;;15.85;3.22;;;7.30;99.90;;;;;;5078068;28;20075;-73
2022/01/21 10:14:52;;;;;;;18.15;3.50;;;7.50;99.90;;;;;;5061090;28;20487;-73
2022/01/21 10:17:17;;;;;;;17.27;2.75;;;7.60;99.90;;;;;;5077945;28;20081;-73
2022/01/21 10:19:45;;;;;;;13.70;2.45;;;7.50;99.90;;;;;;5077640;28;20124;-73
2022/01/21 10:22:23;;;;;;;10.32;2.40;;;7.60;99.90;;;;;;5074148;28;20778;-72
2022/01/21 10:25:01;;;;;;;12.70;2.40;;;7.90;99.90;;;;;;5074512;28;20036;-73
2022/01/21 10:27:29;;;;;;;17.33;3.42;;;8.30;99.90;;;;;;5074175;28;20037;-73
2022/01/21 10:29:57;;;;;;;13.02;2.65;;;8.70;99.90;;;;;;5073664;28;20663;-73
2022/01/21 10:32:40;;;;;;;10.63;2.05;;;8.60;99.90;;;;;;5074462;28;20048;-73
2022/01/21 10:35:22;;;;;;;14.00;3.13;;;8.50;99.90;;;;;;5071789;28;20080;-73
2022/01/21 10:37:49;;;;;;;11.55;2.15;;;8.30;99.90;;;;;;5074125;28;20550;-73
2022/01/21 10:40:16;;;;;;;18.50;2.90;;;8.30;99.90;;;;;;5057346;28;20040;-74
2022/01/21 10:42:43;;;;;;;12.45;2.38;;;8.30;99.90;;;;;;5074010;28;20105;-73
2022/01/21 10:45:09;;;;;;;13.80;2.60;;;8.10;99.90;;;;;;5074176;28;20131;-73
2022/01/21 10:47:39;;;;;;;14.50;2.35;;;8.00;99.90;;;;;;5073839;28;20048;-73
2022/01/21 10:50:04;;;;;;;12.13;2.10;;;7.80;99.90;;;;;;5057372;28;20338;-73
2022/01/21 10:52:38;;;;;;;11.40;2.10;;;7.70;99.90;;;;;;5074077;28;20051;-73
2022/01/21 10:55:23;;;;;;;13.25;2.65;;;7.60;99.90;;;;;;5073876;28;20032;-73
2022/01/21 10:58:15;;;;;;;13.77;2.58;;;7.50;99.90;;;;;;5074029;28;20118;-73
2022/01/21 11:01:06;;;;;;;11.10;2.40;;;7.50;99.90;;;;;;5057212;28;20466;-73
2022/01/21 11:03:32;;;;;;;15.05;2.28;;;7.50;99.90;;;;;;5054611;28;20561;-73
2022/01/21 11:06:14;;;;;;;7.68;2.30;;;7.40;99.90;;;;;;5073529;28;20048;-72
2022/01/21 11:08:40;;;;;;;18.52;2.88;;;7.50;99.90;;;;;;5073514;28;20090;-72
2022/01/21 11:11:06;;;;;;;12.70;2.55;;;7.70;99.90;;;;;;5073292;28;20499;-73
2022/01/21 11:13:36;;;;;;;15.20;2.67;;;7.80;99.90;;;;;;5073377;28;20123;-72
2022/01/21 11:16:26;;;;;;;15.95;2.30;;;7.80;99.90;;;;;;5056488;28;20558;-72
2022/01/21 11:19:07;;;;;;;9.07;2.25;;;7.70;99.90;;;;;;5073620;28;20056;-73
2022/01/21 11:21:49;;;;;;;9.90;2.40;;;7.60;99.90;;;;;;5073376;28;20048;-73
2022/01/21 11:24:17;;;;;;;12.90;2.30;;;7.50;99.90;;;;;;5073108;28;20110;-72
2022/01/21 11:26:43;;;;;;;12.68;2.42;;;7.40;99.90;;;;;;5073142;28;20542;-72
2022/01/21 11:29:10;;;;;;;12.60;2.50;;;7.30;99.90;;;;;;5056315;28;20055;-72
2022/01/21 11:31:36;;;;;;;13.40;2.45;;;7.20;99.90;;;;;;5073088;28;20468;-73
2022/01/21 11:34:02;;;;;;;10.90;2.58;;;7.20;99.90;;;;;;5070984;28;20036;-74
2022/01/21 11:36:28;;;;;;;15.50;2.47;;;7.20;99.90;;;;;;5055145;28;20045;-74
2022/01/21 11:38:55;;;;;;;8.95;2.65;;;7.20;99.90;;;;;;5056182;28;20091;-75
2022/01/21 11:41:24;;;;;;;14.88;2.72;;;7.30;99.90;;;;;;5055430;28;20086;-74
2022/01/21 11:43:52;;;;;;;10.32;2.47;;;7.30;99.90;;;;;;5072660;28;20071;-74
2022/01/21 11:46:26;;;;;;;14.45;2.45;;;7.30;99.90;;;;;;5072923;28;20041;-75
2022/01/21 11:48:57;;;;;;;16.55;2.50;;;7.30;99.90;;;;;;5072825;28;20577;-75
2022/01/21 11:51:36;;;;;;;11.43;2.22;;;7.30;99.90;;;;;;5072436;28;20041;-74
2022/01/21 11:54:08;;;;;;;17.88;2.90;;;7.30;99.90;;;;;;5056242;28;20036;-75
2022/01/21 11:56:49;;;;;;;12.90;2.33;;;7.20;99.90;;;;;;5072758;28;20040;-74
2022/01/21 12:02:00;;;;;;;14.07;2.45;;;7.20;99.90;;;;;;5072650;28;20075;-75
2022/01/21 12:04:39;;;;;;;10.85;1.98;;;7.20;99.90;;;;;;5070266;28;20127;-75
2022/01/21 12:07:35;;;;;;;10.77;1.80;;;7.20;99.90;;;;;;5072177;28;20048;-74
2022/01/21 12:10:07;;;;;;;17.65;2.58;;;7.30;99.90;;;;;;5072404;28;20400;-75
2022/01/21 12:12:50;;;;;;;13.45;3.40;;;7.30;99.90;;;;;;5072225;28;20041;-74
2022/01/21 12:20:43;;;;;;;13.77;3.05;;;7.40;99.90;;;;;;5074036;28;20070;-73
2022/01/21 12:23:17;;;;;;;15.68;2.40;;;7.40;99.90;;;;;;5075396;28;20044;-75
2022/01/21 12:26:17;;;;;;;15.48;2.22;;;7.40;99.90;;;;;;5075208;28;20535;-74
2022/01/21 12:28:52;;;;;;;14.25;3.33;;;7.40;99.90;;;;;;5069261;28;20118;-75
2022/01/21 12:31:22;;;;;;;12.48;2.30;;;7.40;99.90;;;;;;5075430;28;20036;-74
2022/01/21 12:33:59;;;;;;;15.43;2.97;;;7.50;99.90;;;;;;5073626;28;20032;-73
2022/01/21 12:36:29;;;;;;;13.57;2.25;;;7.60;99.90;;;;;;5075366;28;20040;-72
2022/01/21 12:41:21;;;;;;;12.50;2.95;;;7.70;99.90;;;;;;5075212;28;20138;-73
2022/01/21 12:43:57;;;;;;;15.60;2.50;;;7.80;99.90;;;;;;5058259;28;20774;-73
2022/01/21 12:46:23;;;;;;;14.77;3.05;;;7.80;99.90;;;;;;5074939;28;20040;-72
2022/01/21 12:48:50;;;;;;;21.88;3.80;;;7.70;99.90;;;;;;5058108;28;20090;-72
2022/01/21 12:51:34;;;;;;;17.00;2.53;;;7.70;99.90;;;;;;5058376;28;20341;-72
2022/01/21 12:56:52;;;;;;;11.00;2.22;;;7.60;99.90;;;;;;5074894;28;20093;-72
2022/01/21 12:59:21;;;;;;;13.23;2.75;;;7.60;99.90;;;;;;5074849;28;20529;-72
2022/01/21 13:01:49;;;;;;;20.85;3.60;;;7.60;99.90;;;;;;5075065;28;20519;-72
2022/01/21 13:05:06;;;;;;;17.10;3.03;;;7.60;99.90;;;;;;5072463;28;20051;-72
2022/01/21 13:08:00;;;;;;;15.20;3.45;;;7.60;99.90;;;;;;4958611;28;20122;-72
2022/01/21 13:10:28;;;;;;;17.98;3.13;;;7.50;99.90;;;;;;5056972;28;20062;-71
2022/01/21 13:15:55;;;;;;;12.77;2.50;;;7.30;99.90;;;;;;5074777;28;20088;-72
2022/01/21 13:18:31;;;;;;;14.82;2.58;;;7.30;99.90;;;;;;5074657;28;20055;-72
2022/01/21 13:21:00;;;;;;;10.82;2.60;;;7.30;99.90;;;;;;5056105;28;20064;-74
2022/01/21 13:23:43;;;;;;;17.00;3.00;;;7.30;99.90;;;;;;5057959;28;20043;-72
2022/01/21 13:26:26;;;;;;;14.35;3.03;;;7.30;99.90;;;;;;5074438;28;20048;-72
2022/01/21 13:29:03;;;;;;;17.05;2.65;;;7.30;99.90;;;;;;5074568;28;20032;-71
2022/01/21 13:31:53;;;;;;;13.63;2.13;;;7.20;99.90;;;;;;5074713;28;20427;-72
2022/01/21 13:34:33;;;;;;;16.48;2.63;;;7.20;99.90;;;;;;5072350;28;20040;-71
2022/01/21 13:37:09;;;;;;;15.13;2.90;;;7.20;99.90;;;;;;5074499;28;20036;-72
2022/01/21 13:39:41;;;;;;;16.80;2.40;;;7.20;99.90;;;;;;5074460;28;20076;-72
2022/01/21 13:42:20;;;;;;;9.57;2.67;;;7.20;99.90;;;;;;5074325;28;20040;-72
2022/01/21 13:44:48;;;;;;;17.63;2.95;;;7.20;99.90;;;;;;5074328;28;20040;-72
2022/01/21 13:47:31;;;;;;;17.60;3.42;;;7.20;99.90;;;;;;5074286;28;20044;-72
2022/01/21 13:50:06;;;;;;;11.43;2.42;;;7.20;99.90;;;;;;5054734;28;20143;-71
2022/01/21 13:52:53;;;;;;;12.65;2.80;;;7.20;99.90;;;;;;5054452;28;20388;-72
2022/01/21 13:55:41;;;;;;;13.45;2.45;;;7.30;99.90;;;;;;5037871;28;20044;-72
2022/01/21 13:58:13;;;;;;;18.30;2.85;;;7.30;99.90;;;;;;5054179;28;20048;-73
2022/01/21 14:01:10;;;;;;;14.88;2.80;;;7.30;99.90;;;;;;5054268;28;20097;-72
2022/01/21 14:03:41;;;;;;;19.67;4.07;;;7.30;99.90;;;;;;5035271;28;20044;-73